Wooramel, Australia
Current Conditions -  °F | °C
As of 10:00 PM on Thursday 23 Oct 2014 (Local Time) from YCAR Reporting Station
Scattered Clouds Scattered Clouds  
Wind Chill: 70°   Ceiling: Unl
Heat Index: 70°   Visibility: 6mi
Dew Point: 61°   Wind: 15mph
Humidity: 73%   Direction: 190°S
Pressure: 30"   Gusts: NA
Location:  25.75°S, 114.26°E
Report Text: YCAR 231400Z AUTO 19013KT 9999 // SCT022 21/16 Q1016
Loading
Personal Weather Stations






























Interactive Weather Map
Tropical Storm Tracking
New forecast layout! Learn more

10-Day Weather Forecast

Advertisements
Track Severe Weather on mobile